sensor_id;sensor_type;location;lat;lon;timestamp;P1;durP1;ratioP1;P2;durP2;ratioP2
38034;SDS011;23841;48.524;1.342;2023-04-21T00:01:50;7.78;;;5.00;;
38034;SDS011;23841;48.524;1.342;2023-04-21T00:04:17;8.32;;;4.97;;
38034;SDS011;23841;48.524;1.342;2023-04-21T00:06:43;8.43;;;5.60;;
38034;SDS011;23841;48.524;1.342;2023-04-21T00:09:09;7.20;;;5.10;;
38034;SDS011;23841;48.524;1.342;2023-04-21T00:11:35;8.70;;;5.53;;
38034;SDS011;23841;48.524;1.342;2023-04-21T00:14:01;9.93;;;6.13;;
38034;SDS011;23841;48.524;1.342;2023-04-21T00:16:26;11.60;;;5.75;;
38034;SDS011;23841;48.524;1.342;2023-04-21T00:18:52;9.88;;;6.88;;
38034;SDS011;23841;48.524;1.342;2023-04-21T00:21:17;8.48;;;5.75;;
38034;SDS011;23841;48.524;1.342;2023-04-21T00:23:42;8.73;;;5.47;;
38034;SDS011;23841;48.524;1.342;2023-04-21T00:26:08;9.65;;;5.88;;
38034;SDS011;23841;48.524;1.342;2023-04-21T00:28:33;7.93;;;5.63;;
38034;SDS011;23841;48.524;1.342;2023-04-21T00:30:59;8.43;;;5.70;;
38034;SDS011;23841;48.524;1.342;2023-04-21T00:33:24;8.93;;;5.35;;
38034;SDS011;23841;48.524;1.342;2023-04-21T00:35:50;10.02;;;5.90;;
38034;SDS011;23841;48.524;1.342;2023-04-21T00:38:15;11.88;;;6.45;;
38034;SDS011;23841;48.524;1.342;2023-04-21T00:40:41;9.32;;;6.28;;
38034;SDS011;23841;48.524;1.342;2023-04-21T00:43:06;9.85;;;6.35;;
38034;SDS011;23841;48.524;1.342;2023-04-21T00:45:32;10.68;;;5.93;;
38034;SDS011;23841;48.524;1.342;2023-04-21T00:47:58;8.43;;;5.50;;
38034;SDS011;23841;48.524;1.342;2023-04-21T00:50:23;9.13;;;6.18;;
38034;SDS011;23841;48.524;1.342;2023-04-21T00:52:49;8.95;;;5.45;;
38034;SDS011;23841;48.524;1.342;2023-04-21T00:55:15;9.88;;;5.72;;
38034;SDS011;23841;48.524;1.342;2023-04-21T00:57:40;8.52;;;5.35;;
38034;SDS011;23841;48.524;1.342;2023-04-21T01:00:06;8.95;;;5.88;;
38034;SDS011;23841;48.524;1.342;2023-04-21T01:02:35;8.70;;;5.57;;
38034;SDS011;23841;48.524;1.342;2023-04-21T01:05:04;8.88;;;6.22;;
38034;SDS011;23841;48.524;1.342;2023-04-21T01:07:33;8.63;;;5.30;;
38034;SDS011;23841;48.524;1.342;2023-04-21T01:10:00;8.52;;;5.97;;
38034;SDS011;23841;48.524;1.342;2023-04-21T01:12:25;9.40;;;5.95;;
38034;SDS011;23841;48.524;1.342;2023-04-21T01:14:51;7.80;;;5.20;;
38034;SDS011;23841;48.524;1.342;2023-04-21T01:17:16;8.80;;;6.07;;
38034;SDS011;23841;48.524;1.342;2023-04-21T01:19:43;8.60;;;5.78;;
38034;SDS011;23841;48.524;1.342;2023-04-21T01:22:09;8.73;;;5.65;;
38034;SDS011;23841;48.524;1.342;2023-04-21T01:27:02;8.25;;;5.95;;
38034;SDS011;23841;48.524;1.342;2023-04-21T01:29:31;9.77;;;6.30;;
38034;SDS011;23841;48.524;1.342;2023-04-21T01:31:57;9.43;;;5.85;;
38034;SDS011;23841;48.524;1.342;2023-04-21T01:34:27;8.50;;;5.75;;
38034;SDS011;23841;48.524;1.342;2023-04-21T01:36:52;11.65;;;6.90;;
38034;SDS011;23841;48.524;1.342;2023-04-21T01:39:18;11.30;;;6.47;;
38034;SDS011;23841;48.524;1.342;2023-04-21T01:41:43;10.00;;;6.18;;
38034;SDS011;23841;48.524;1.342;2023-04-21T01:44:08;9.00;;;6.28;;
38034;SDS011;23841;48.524;1.342;2023-04-21T01:46:34;10.35;;;6.60;;
38034;SDS011;23841;48.524;1.342;2023-04-21T01:48:59;9.90;;;6.97;;
38034;SDS011;23841;48.524;1.342;2023-04-21T01:51:25;11.68;;;7.07;;
38034;SDS011;23841;48.524;1.342;2023-04-21T01:53:51;12.50;;;6.82;;
38034;SDS011;23841;48.524;1.342;2023-04-21T01:56:17;11.25;;;6.25;;
38034;SDS011;23841;48.524;1.342;2023-04-21T01:58:42;11.98;;;6.78;;
38034;SDS011;23841;48.524;1.342;2023-04-21T02:01:08;10.70;;;6.82;;
38034;SDS011;23841;48.524;1.342;2023-04-21T02:03:33;10.30;;;6.88;;
38034;SDS011;23841;48.524;1.342;2023-04-21T02:05:59;14.57;;;7.45;;
38034;SDS011;23841;48.524;1.342;2023-04-21T02:08:24;12.20;;;6.95;;
38034;SDS011;23841;48.524;1.342;2023-04-21T02:10:50;12.23;;;7.72;;
38034;SDS011;23841;48.524;1.342;2023-04-21T02:13:15;11.63;;;7.22;;
38034;SDS011;23841;48.524;1.342;2023-04-21T02:15:41;11.02;;;7.47;;
38034;SDS011;23841;48.524;1.342;2023-04-21T02:18:06;12.40;;;7.32;;
38034;SDS011;23841;48.524;1.342;2023-04-21T02:20:32;14.52;;;8.20;;
38034;SDS011;23841;48.524;1.342;2023-04-21T02:22:57;11.77;;;7.88;;
38034;SDS011;23841;48.524;1.342;2023-04-21T02:25:23;10.82;;;7.22;;
38034;SDS011;23841;48.524;1.342;2023-04-21T02:27:48;13.95;;;8.13;;
38034;SDS011;23841;48.524;1.342;2023-04-21T02:30:13;10.35;;;7.53;;
38034;SDS011;23841;48.524;1.342;2023-04-21T02:32:39;9.77;;;7.00;;
38034;SDS011;23841;48.524;1.342;2023-04-21T02:35:04;10.55;;;7.40;;
38034;SDS011;23841;48.524;1.342;2023-04-21T02:37:30;12.43;;;7.45;;
38034;SDS011;23841;48.524;1.342;2023-04-21T02:39:55;10.65;;;7.00;;
38034;SDS011;23841;48.524;1.342;2023-04-21T02:42:21;12.35;;;8.25;;
38034;SDS011;23841;48.524;1.342;2023-04-21T02:44:46;10.55;;;7.00;;
38034;SDS011;23841;48.524;1.342;2023-04-21T02:47:13;12.10;;;7.95;;
38034;SDS011;23841;48.524;1.342;2023-04-21T02:49:40;10.13;;;7.30;;
38034;SDS011;23841;48.524;1.342;2023-04-21T02:52:06;11.32;;;7.45;;
38034;SDS011;23841;48.524;1.342;2023-04-21T02:54:31;10.70;;;7.25;;
38034;SDS011;23841;48.524;1.342;2023-04-21T02:56:57;13.20;;;8.25;;
38034;SDS011;23841;48.524;1.342;2023-04-21T02:59:23;9.77;;;7.13;;
38034;SDS011;23841;48.524;1.342;2023-04-21T03:01:48;10.55;;;7.43;;
38034;SDS011;23841;48.524;1.342;2023-04-21T03:04:13;11.00;;;7.30;;
38034;SDS011;23841;48.524;1.342;2023-04-21T03:06:39;10.02;;;7.22;;
38034;SDS011;23841;48.524;1.342;2023-04-21T03:09:04;11.75;;;7.72;;
38034;SDS011;23841;48.524;1.342;2023-04-21T03:11:30;11.05;;;7.03;;
38034;SDS011;23841;48.524;1.342;2023-04-21T03:13:55;11.93;;;7.50;;
38034;SDS011;23841;48.524;1.342;2023-04-21T03:16:20;11.57;;;7.70;;
38034;SDS011;23841;48.524;1.342;2023-04-21T03:18:46;12.73;;;7.55;;
38034;SDS011;23841;48.524;1.342;2023-04-21T03:21:12;9.82;;;7.30;;
38034;SDS011;23841;48.524;1.342;2023-04-21T03:23:38;12.45;;;7.97;;
38034;SDS011;23841;48.524;1.342;2023-04-21T03:26:06;10.55;;;7.75;;
38034;SDS011;23841;48.524;1.342;2023-04-21T03:28:32;10.65;;;6.90;;
38034;SDS011;23841;48.524;1.342;2023-04-21T03:30:57;10.02;;;7.18;;
38034;SDS011;23841;48.524;1.342;2023-04-21T03:33:23;9.25;;;6.72;;
38034;SDS011;23841;48.524;1.342;2023-04-21T03:35:48;9.13;;;6.45;;
38034;SDS011;23841;48.524;1.342;2023-04-21T03:38:14;9.98;;;6.70;;
38034;SDS011;23841;48.524;1.342;2023-04-21T03:40:39;9.40;;;7.07;;
38034;SDS011;23841;48.524;1.342;2023-04-21T03:43:04;8.55;;;6.60;;
38034;SDS011;23841;48.524;1.342;2023-04-21T03:45:30;8.88;;;6.40;;
38034;SDS011;23841;48.524;1.342;2023-04-21T03:47:55;9.65;;;6.85;;
38034;SDS011;23841;48.524;1.342;2023-04-21T03:50:21;9.60;;;6.50;;
38034;SDS011;23841;48.524;1.342;2023-04-21T03:52:47;8.82;;;6.30;;
38034;SDS011;23841;48.524;1.342;2023-04-21T03:55:12;7.85;;;5.43;;
38034;SDS011;23841;48.524;1.342;2023-04-21T03:57:38;7.55;;;5.70;;
38034;SDS011;23841;48.524;1.342;2023-04-21T04:00:06;9.98;;;6.45;;
38034;SDS011;23841;48.524;1.342;2023-04-21T04:02:35;6.90;;;5.15;;
38034;SDS011;23841;48.524;1.342;2023-04-21T04:05:02;7.57;;;5.13;;
38034;SDS011;23841;48.524;1.342;2023-04-21T04:07:29;7.93;;;5.60;;
38034;SDS011;23841;48.524;1.342;2023-04-21T04:09:58;8.50;;;5.65;;
38034;SDS011;23841;48.524;1.342;2023-04-21T04:12:23;7.25;;;5.40;;
38034;SDS011;23841;48.524;1.342;2023-04-21T04:14:48;7.03;;;5.70;;
38034;SDS011;23841;48.524;1.342;2023-04-21T04:17:14;7.82;;;5.55;;
38034;SDS011;23841;48.524;1.342;2023-04-21T04:19:40;8.05;;;5.85;;
38034;SDS011;23841;48.524;1.342;2023-04-21T04:22:05;6.80;;;5.13;;
38034;SDS011;23841;48.524;1.342;2023-04-21T04:24:34;6.65;;;5.07;;
38034;SDS011;23841;48.524;1.342;2023-04-21T04:27:00;6.80;;;4.95;;
38034;SDS011;23841;48.524;1.342;2023-04-21T04:29:27;6.75;;;5.07;;
38034;SDS011;23841;48.524;1.342;2023-04-21T04:31:53;7.15;;;5.00;;
38034;SDS011;23841;48.524;1.342;2023-04-21T04:34:18;7.75;;;5.60;;
38034;SDS011;23841;48.524;1.342;2023-04-21T04:36:44;7.40;;;5.38;;
38034;SDS011;23841;48.524;1.342;2023-04-21T04:39:12;8.00;;;5.68;;
38034;SDS011;23841;48.524;1.342;2023-04-21T04:41:37;6.65;;;4.97;;
38034;SDS011;23841;48.524;1.342;2023-04-21T04:44:03;7.28;;;4.93;;
38034;SDS011;23841;48.524;1.342;2023-04-21T04:46:29;5.85;;;4.40;;
38034;SDS011;23841;48.524;1.342;2023-04-21T04:48:55;5.28;;;4.32;;
38034;SDS011;23841;48.524;1.342;2023-04-21T04:51:21;6.55;;;5.05;;
38034;SDS011;23841;48.524;1.342;2023-04-21T04:53:47;6.63;;;4.93;;
38034;SDS011;23841;48.524;1.342;2023-04-21T04:56:12;6.18;;;4.70;;
38034;SDS011;23841;48.524;1.342;2023-04-21T04:58:38;6.80;;;4.95;;
38034;SDS011;23841;48.524;1.342;2023-04-21T05:01:13;6.38;;;4.57;;
38034;SDS011;23841;48.524;1.342;2023-04-21T05:03:41;6.82;;;4.47;;
38034;SDS011;23841;48.524;1.342;2023-04-21T05:06:08;5.15;;;3.80;;
38034;SDS011;23841;48.524;1.342;2023-04-21T05:08:33;5.75;;;4.03;;
38034;SDS011;23841;48.524;1.342;2023-04-21T05:10:59;5.38;;;4.25;;
38034;SDS011;23841;48.524;1.342;2023-04-21T05:13:24;5.78;;;4.05;;
38034;SDS011;23841;48.524;1.342;2023-04-21T05:15:55;5.07;;;4.00;;
38034;SDS011;23841;48.524;1.342;2023-04-21T05:18:22;6.32;;;4.28;;
38034;SDS011;23841;48.524;1.342;2023-04-21T05:20:47;5.72;;;4.22;;
38034;SDS011;23841;48.524;1.342;2023-04-21T05:23:13;6.57;;;4.25;;
38034;SDS011;23841;48.524;1.342;2023-04-21T05:25:38;5.70;;;4.05;;
38034;SDS011;23841;48.524;1.342;2023-04-21T05:28:03;5.95;;;4.53;;
38034;SDS011;23841;48.524;1.342;2023-04-21T05:30:29;5.53;;;4.00;;
38034;SDS011;23841;48.524;1.342;2023-04-21T05:32:54;5.50;;;4.03;;
38034;SDS011;23841;48.524;1.342;2023-04-21T05:35:19;5.57;;;3.90;;
38034;SDS011;23841;48.524;1.342;2023-04-21T05:37:45;5.82;;;4.35;;
38034;SDS011;23841;48.524;1.342;2023-04-21T05:40:11;5.68;;;4.15;;
38034;SDS011;23841;48.524;1.342;2023-04-21T05:42:36;5.88;;;4.18;;
38034;SDS011;23841;48.524;1.342;2023-04-21T05:45:02;5.85;;;4.40;;
38034;SDS011;23841;48.524;1.342;2023-04-21T05:47:28;5.75;;;4.25;;
38034;SDS011;23841;48.524;1.342;2023-04-21T05:49:53;5.95;;;4.43;;
38034;SDS011;23841;48.524;1.342;2023-04-21T05:52:19;5.22;;;4.13;;
38034;SDS011;23841;48.524;1.342;2023-04-21T05:54:45;5.20;;;4.13;;
38034;SDS011;23841;48.524;1.342;2023-04-21T05:57:11;5.60;;;4.32;;
38034;SDS011;23841;48.524;1.342;2023-04-21T05:59:36;6.05;;;4.78;;
38034;SDS011;23841;48.524;1.342;2023-04-21T06:02:02;6.03;;;4.38;;
38034;SDS011;23841;48.524;1.342;2023-04-21T06:04:27;4.90;;;3.65;;
38034;SDS011;23841;48.524;1.342;2023-04-21T06:06:53;5.78;;;4.35;;
38034;SDS011;23841;48.524;1.342;2023-04-21T06:09:18;5.90;;;4.28;;
38034;SDS011;23841;48.524;1.342;2023-04-21T06:11:44;5.82;;;4.30;;
38034;SDS011;23841;48.524;1.342;2023-04-21T06:14:09;5.55;;;4.00;;
38034;SDS011;23841;48.524;1.342;2023-04-21T06:16:34;6.20;;;4.40;;
38034;SDS011;23841;48.524;1.342;2023-04-21T06:19:01;6.28;;;4.25;;
38034;SDS011;23841;48.524;1.342;2023-04-21T06:21:27;5.50;;;3.83;;
38034;SDS011;23841;48.524;1.342;2023-04-21T06:23:52;5.45;;;4.18;;
38034;SDS011;23841;48.524;1.342;2023-04-21T06:26:18;5.65;;;4.35;;
38034;SDS011;23841;48.524;1.342;2023-04-21T06:28:43;6.20;;;4.30;;
38034;SDS011;23841;48.524;1.342;2023-04-21T06:31:08;7.05;;;4.57;;
38034;SDS011;23841;48.524;1.342;2023-04-21T06:33:39;6.10;;;4.25;;
38034;SDS011;23841;48.524;1.342;2023-04-21T06:36:05;5.85;;;4.25;;
38034;SDS011;23841;48.524;1.342;2023-04-21T06:38:30;6.45;;;4.60;;
38034;SDS011;23841;48.524;1.342;2023-04-21T06:40:56;7.63;;;5.30;;
38034;SDS011;23841;48.524;1.342;2023-04-21T06:43:22;7.45;;;4.93;;
38034;SDS011;23841;48.524;1.342;2023-04-21T06:45:47;7.68;;;5.40;;
38034;SDS011;23841;48.524;1.342;2023-04-21T06:48:13;7.07;;;4.90;;
38034;SDS011;23841;48.524;1.342;2023-04-21T06:50:38;8.07;;;5.22;;
38034;SDS011;23841;48.524;1.342;2023-04-21T06:53:04;8.88;;;6.20;;
38034;SDS011;23841;48.524;1.342;2023-04-21T06:55:29;8.60;;;5.93;;
38034;SDS011;23841;48.524;1.342;2023-04-21T06:57:55;9.77;;;6.50;;
38034;SDS011;23841;48.524;1.342;2023-04-21T07:00:20;10.20;;;6.10;;
38034;SDS011;23841;48.524;1.342;2023-04-21T07:02:49;8.38;;;5.68;;
38034;SDS011;23841;48.524;1.342;2023-04-21T07:05:15;8.50;;;5.13;;
38034;SDS011;23841;48.524;1.342;2023-04-21T07:07:40;10.00;;;6.43;;
38034;SDS011;23841;48.524;1.342;2023-04-21T07:10:06;8.45;;;5.63;;
38034;SDS011;23841;48.524;1.342;2023-04-21T07:12:31;8.63;;;5.93;;
38034;SDS011;23841;48.524;1.342;2023-04-21T07:14:57;9.02;;;6.07;;
38034;SDS011;23841;48.524;1.342;2023-04-21T07:17:22;9.48;;;6.00;;
38034;SDS011;23841;48.524;1.342;2023-04-21T07:19:48;10.32;;;6.15;;
38034;SDS011;23841;48.524;1.342;2023-04-21T07:22:13;9.85;;;6.32;;
38034;SDS011;23841;48.524;1.342;2023-04-21T07:24:38;10.23;;;6.57;;
38034;SDS011;23841;48.524;1.342;2023-04-21T07:27:04;8.85;;;5.68;;
38034;SDS011;23841;48.524;1.342;2023-04-21T07:29:29;8.93;;;5.95;;
38034;SDS011;23841;48.524;1.342;2023-04-21T07:31:55;8.55;;;5.93;;
38034;SDS011;23841;48.524;1.342;2023-04-21T07:34:22;9.70;;;6.43;;
38034;SDS011;23841;48.524;1.342;2023-04-21T07:36:48;8.32;;;5.57;;
38034;SDS011;23841;48.524;1.342;2023-04-21T07:39:16;9.00;;;5.78;;
38034;SDS011;23841;48.524;1.342;2023-04-21T07:41:41;9.50;;;6.20;;
38034;SDS011;23841;48.524;1.342;2023-04-21T07:44:07;9.10;;;6.15;;
38034;SDS011;23841;48.524;1.342;2023-04-21T07:46:32;8.65;;;5.82;;
38034;SDS011;23841;48.524;1.342;2023-04-21T07:48:58;8.95;;;5.40;;
38034;SDS011;23841;48.524;1.342;2023-04-21T07:51:24;8.50;;;5.88;;
38034;SDS011;23841;48.524;1.342;2023-04-21T07:53:51;8.38;;;5.75;;
38034;SDS011;23841;48.524;1.342;2023-04-21T07:56:17;7.90;;;5.28;;
38034;SDS011;23841;48.524;1.342;2023-04-21T07:58:43;7.40;;;5.13;;
38034;SDS011;23841;48.524;1.342;2023-04-21T08:01:09;8.80;;;5.60;;
38034;SDS011;23841;48.524;1.342;2023-04-21T08:03:34;8.75;;;5.38;;
38034;SDS011;23841;48.524;1.342;2023-04-21T08:06:00;8.32;;;5.53;;
38034;SDS011;23841;48.524;1.342;2023-04-21T08:08:27;9.48;;;5.35;;
38034;SDS011;23841;48.524;1.342;2023-04-21T08:10:52;8.02;;;5.05;;
38034;SDS011;23841;48.524;1.342;2023-04-21T08:13:18;9.52;;;5.47;;
38034;SDS011;23841;48.524;1.342;2023-04-21T08:15:45;8.70;;;5.53;;
38034;SDS011;23841;48.524;1.342;2023-04-21T08:18:11;8.98;;;5.82;;
38034;SDS011;23841;48.524;1.342;2023-04-21T08:20:36;6.95;;;4.60;;
38034;SDS011;23841;48.524;1.342;2023-04-21T08:23:02;7.93;;;5.53;;
38034;SDS011;23841;48.524;1.342;2023-04-21T08:25:27;8.80;;;5.18;;
38034;SDS011;23841;48.524;1.342;2023-04-21T08:27:53;8.10;;;4.75;;
38034;SDS011;23841;48.524;1.342;2023-04-21T08:30:18;9.00;;;4.80;;
38034;SDS011;23841;48.524;1.342;2023-04-21T08:32:44;8.38;;;5.28;;
38034;SDS011;23841;48.524;1.342;2023-04-21T08:35:09;9.45;;;5.43;;
38034;SDS011;23841;48.524;1.342;2023-04-21T08:37:36;9.68;;;5.30;;
38034;SDS011;23841;48.524;1.342;2023-04-21T08:40:03;11.52;;;5.45;;
38034;SDS011;23841;48.524;1.342;2023-04-21T08:42:29;24.25;;;6.65;;
38034;SDS011;23841;48.524;1.342;2023-04-21T08:44:54;32.08;;;6.30;;
38034;SDS011;23841;48.524;1.342;2023-04-21T08:47:20;28.00;;;6.57;;
38034;SDS011;23841;48.524;1.342;2023-04-21T08:49:48;25.08;;;6.70;;
38034;SDS011;23841;48.524;1.342;2023-04-21T08:52:15;24.00;;;6.53;;
38034;SDS011;23841;48.524;1.342;2023-04-21T08:54:41;36.05;;;7.22;;
38034;SDS011;23841;48.524;1.342;2023-04-21T08:57:07;33.15;;;6.65;;
38034;SDS011;23841;48.524;1.342;2023-04-21T08:59:32;27.75;;;7.10;;
38034;SDS011;23841;48.524;1.342;2023-04-21T09:02:04;23.75;;;5.82;;
38034;SDS011;23841;48.524;1.342;2023-04-21T09:04:45;28.05;;;7.18;;
38034;SDS011;23841;48.524;1.342;2023-04-21T09:07:28;28.83;;;5.72;;
38034;SDS011;23841;48.524;1.342;2023-04-21T09:09:56;20.33;;;5.32;;
38034;SDS011;23841;48.524;1.342;2023-04-21T09:12:22;24.48;;;5.55;;
38034;SDS011;23841;48.524;1.342;2023-04-21T09:14:48;13.45;;;4.50;;
38034;SDS011;23841;48.524;1.342;2023-04-21T09:17:15;16.10;;;5.25;;
38034;SDS011;23841;48.524;1.342;2023-04-21T09:19:41;17.15;;;5.57;;
38034;SDS011;23841;48.524;1.342;2023-04-21T09:22:07;24.80;;;4.60;;
38034;SDS011;23841;48.524;1.342;2023-04-21T09:24:33;17.77;;;4.90;;
38034;SDS011;23841;48.524;1.342;2023-04-21T09:26:58;16.45;;;4.68;;
38034;SDS011;23841;48.524;1.342;2023-04-21T09:29:27;16.35;;;4.35;;
38034;SDS011;23841;48.524;1.342;2023-04-21T09:31:54;11.20;;;4.22;;
38034;SDS011;23841;48.524;1.342;2023-04-21T09:34:23;12.48;;;4.03;;
38034;SDS011;23841;48.524;1.342;2023-04-21T09:36:58;17.65;;;4.85;;
38034;SDS011;23841;48.524;1.342;2023-04-21T09:39:31;14.02;;;4.32;;
38034;SDS011;23841;48.524;1.342;2023-04-21T09:41:57;10.38;;;3.88;;
38034;SDS011;23841;48.524;1.342;2023-04-21T09:44:26;13.02;;;4.15;;
38034;SDS011;23841;48.524;1.342;2023-04-21T09:47:01;13.45;;;4.05;;
38034;SDS011;23841;48.524;1.342;2023-04-21T09:49:29;9.48;;;3.58;;
38034;SDS011;23841;48.524;1.342;2023-04-21T09:51:58;8.30;;;3.47;;
38034;SDS011;23841;48.524;1.342;2023-04-21T09:54:34;7.15;;;3.95;;
38034;SDS011;23841;48.524;1.342;2023-04-21T09:57:05;6.35;;;3.83;;
38034;SDS011;23841;48.524;1.342;2023-04-21T09:59:35;7.55;;;3.38;;
38034;SDS011;23841;48.524;1.342;2023-04-21T10:02:05;10.30;;;3.38;;
38034;SDS011;23841;48.524;1.342;2023-04-21T10:04:32;7.55;;;3.65;;
38034;SDS011;23841;48.524;1.342;2023-04-21T10:07:01;10.70;;;4.20;;
38034;SDS011;23841;48.524;1.342;2023-04-21T10:09:32;14.38;;;4.53;;
38034;SDS011;23841;48.524;1.342;2023-04-21T10:12:01;5.53;;;2.97;;
38034;SDS011;23841;48.524;1.342;2023-04-21T10:14:28;6.88;;;3.08;;
38034;SDS011;23841;48.524;1.342;2023-04-21T10:16:58;8.30;;;3.70;;
38034;SDS011;23841;48.524;1.342;2023-04-21T10:19:28;8.15;;;3.67;;
38034;SDS011;23841;48.524;1.342;2023-04-21T10:21:59;4.85;;;2.90;;
38034;SDS011;23841;48.524;1.342;2023-04-21T10:24:28;4.57;;;2.63;;
38034;SDS011;23841;48.524;1.342;2023-04-21T10:26:55;6.63;;;2.83;;
38034;SDS011;23841;48.524;1.342;2023-04-21T10:29:29;5.00;;;2.67;;
38034;SDS011;23841;48.524;1.342;2023-04-21T10:31:57;3.85;;;2.58;;
38034;SDS011;23841;48.524;1.342;2023-04-21T10:41:55;4.72;;;2.45;;
38034;SDS011;23841;48.524;1.342;2023-04-21T10:44:41;3.80;;;2.22;;
38034;SDS011;23841;48.524;1.342;2023-04-21T10:47:07;4.40;;;2.30;;
38034;SDS011;23841;48.524;1.342;2023-04-21T10:49:36;4.78;;;2.50;;
38034;SDS011;23841;48.524;1.342;2023-04-21T10:52:04;4.90;;;2.45;;
38034;SDS011;23841;48.524;1.342;2023-04-21T10:57:17;4.13;;;2.13;;
38034;SDS011;23841;48.524;1.342;2023-04-21T10:59:44;4.30;;;2.50;;
38034;SDS011;23841;48.524;1.342;2023-04-21T11:02:10;4.32;;;2.30;;
38034;SDS011;23841;48.524;1.342;2023-04-21T11:04:37;3.88;;;2.33;;
38034;SDS011;23841;48.524;1.342;2023-04-21T11:07:12;4.35;;;2.20;;
38034;SDS011;23841;48.524;1.342;2023-04-21T11:09:41;3.45;;;2.33;;
38034;SDS011;23841;48.524;1.342;2023-04-21T11:12:10;3.65;;;2.40;;
38034;SDS011;23841;48.524;1.342;2023-04-21T11:14:43;4.60;;;2.15;;
38034;SDS011;23841;48.524;1.342;2023-04-21T11:17:15;3.83;;;2.08;;
38034;SDS011;23841;48.524;1.342;2023-04-21T11:19:45;3.83;;;2.47;;
38034;SDS011;23841;48.524;1.342;2023-04-21T11:22:18;3.55;;;2.20;;
38034;SDS011;23841;48.524;1.342;2023-04-21T11:24:45;4.47;;;2.30;;
38034;SDS011;23841;48.524;1.342;2023-04-21T11:27:11;4.65;;;3.13;;
38034;SDS011;23841;48.524;1.342;2023-04-21T11:29:38;4.45;;;2.42;;
38034;SDS011;23841;48.524;1.342;2023-04-21T11:32:04;4.15;;;2.45;;
38034;SDS011;23841;48.524;1.342;2023-04-21T11:34:31;4.28;;;2.65;;
38034;SDS011;23841;48.524;1.342;2023-04-21T11:36:57;3.70;;;2.13;;
38034;SDS011;23841;48.524;1.342;2023-04-21T11:39:22;4.15;;;2.25;;
38034;SDS011;23841;48.524;1.342;2023-04-21T11:41:48;4.13;;;2.40;;
38034;SDS011;23841;48.524;1.342;2023-04-21T11:47:16;4.15;;;2.53;;
38034;SDS011;23841;48.524;1.342;2023-04-21T11:49:48;3.22;;;2.08;;
38034;SDS011;23841;48.524;1.342;2023-04-21T11:52:28;3.60;;;2.30;;
38034;SDS011;23841;48.524;1.342;2023-04-21T11:57:41;3.67;;;2.38;;
38034;SDS011;23841;48.524;1.342;2023-04-21T12:00:07;4.63;;;2.20;;
38034;SDS011;23841;48.524;1.342;2023-04-21T12:02:41;4.15;;;2.40;;
38034;SDS011;23841;48.524;1.342;2023-04-21T12:05:11;5.22;;;2.20;;
38034;SDS011;23841;48.524;1.342;2023-04-21T12:07:39;5.00;;;2.00;;
38034;SDS011;23841;48.524;1.342;2023-04-21T12:10:11;70.00;;;29.30;;
38034;SDS011;23841;48.524;1.342;2023-04-21T12:12:41;128.90;;;52.42;;
38034;SDS011;23841;48.524;1.342;2023-04-21T12:15:08;180.07;;;74.63;;
38034;SDS011;23841;48.524;1.342;2023-04-21T12:17:38;267.75;;;111.05;;
38034;SDS011;23841;48.524;1.342;2023-04-21T12:20:08;313.48;;;128.45;;
38034;SDS011;23841;48.524;1.342;2023-04-21T12:22:33;387.13;;;159.38;;
38034;SDS011;23841;48.524;1.342;2023-04-21T12:24:59;415.98;;;175.93;;
38034;SDS011;23841;48.524;1.342;2023-04-21T12:27:27;428.77;;;188.25;;
38034;SDS011;23841;48.524;1.342;2023-04-21T12:29:53;454.98;;;208.00;;
38034;SDS011;23841;48.524;1.342;2023-04-21T12:32:19;451.85;;;210.98;;
38034;SDS011;23841;48.524;1.342;2023-04-21T12:34:45;452.65;;;204.73;;
38034;SDS011;23841;48.524;1.342;2023-04-21T12:37:11;451.27;;;209.23;;
38034;SDS011;23841;48.524;1.342;2023-04-21T12:39:38;433.85;;;194.93;;
38034;SDS011;23841;48.524;1.342;2023-04-21T12:42:03;423.58;;;183.85;;
38034;SDS011;23841;48.524;1.342;2023-04-21T12:44:30;411.08;;;178.45;;
38034;SDS011;23841;48.524;1.342;2023-04-21T12:46:56;383.05;;;164.50;;
38034;SDS011;23841;48.524;1.342;2023-04-21T12:49:22;384.13;;;159.52;;
38034;SDS011;23841;48.524;1.342;2023-04-21T12:51:48;369.98;;;156.00;;
38034;SDS011;23841;48.524;1.342;2023-04-21T12:54:14;359.75;;;148.85;;
38034;SDS011;23841;48.524;1.342;2023-04-21T12:56:40;338.88;;;143.25;;
38034;SDS011;23841;48.524;1.342;2023-04-21T12:59:06;328.88;;;135.82;;
38034;SDS011;23841;48.524;1.342;2023-04-21T13:01:34;302.98;;;125.18;;
38034;SDS011;23841;48.524;1.342;2023-04-21T13:04:03;296.58;;;126.80;;
38034;SDS011;23841;48.524;1.342;2023-04-21T13:06:32;283.80;;;118.88;;
38034;SDS011;23841;48.524;1.342;2023-04-21T13:08:58;271.88;;;114.75;;
38034;SDS011;23841;48.524;1.342;2023-04-21T13:11:25;251.02;;;107.40;;
38034;SDS011;23841;48.524;1.342;2023-04-21T13:13:50;243.65;;;103.00;;
38034;SDS011;23841;48.524;1.342;2023-04-21T13:16:16;220.25;;;94.30;;
38034;SDS011;23841;48.524;1.342;2023-04-21T13:18:43;210.32;;;88.82;;
38034;SDS011;23841;48.524;1.342;2023-04-21T13:21:09;191.55;;;83.00;;
38034;SDS011;23841;48.524;1.342;2023-04-21T13:23:35;174.07;;;74.35;;
38034;SDS011;23841;48.524;1.342;2023-04-21T13:26:00;156.15;;;65.68;;
38034;SDS011;23841;48.524;1.342;2023-04-21T13:28:26;150.27;;;64.35;;
38034;SDS011;23841;48.524;1.342;2023-04-21T13:30:51;141.20;;;60.75;;
38034;SDS011;23841;48.524;1.342;2023-04-21T13:33:18;136.65;;;58.88;;
38034;SDS011;23841;48.524;1.342;2023-04-21T13:35:45;125.22;;;54.50;;
38034;SDS011;23841;48.524;1.342;2023-04-21T13:38:10;120.88;;;53.95;;
38034;SDS011;23841;48.524;1.342;2023-04-21T13:40:36;128.70;;;52.72;;
38034;SDS011;23841;48.524;1.342;2023-04-21T13:43:02;116.75;;;52.30;;
38034;SDS011;23841;48.524;1.342;2023-04-21T13:45:27;108.05;;;47.85;;
38034;SDS011;23841;48.524;1.342;2023-04-21T13:47:53;94.22;;;42.20;;
38034;SDS011;23841;48.524;1.342;2023-04-21T13:50:18;87.07;;;38.95;;
38034;SDS011;23841;48.524;1.342;2023-04-21T13:52:44;78.15;;;33.35;;
38034;SDS011;23841;48.524;1.342;2023-04-21T13:55:09;74.88;;;32.40;;
38034;SDS011;23841;48.524;1.342;2023-04-21T13:57:35;70.65;;;31.63;;
38034;SDS011;23841;48.524;1.342;2023-04-21T14:00:05;66.03;;;31.40;;
38034;SDS011;23841;48.524;1.342;2023-04-21T14:02:33;58.40;;;27.92;;
38034;SDS011;23841;48.524;1.342;2023-04-21T14:04:59;56.80;;;26.08;;
38034;SDS011;23841;48.524;1.342;2023-04-21T14:07:24;52.83;;;24.38;;
38034;SDS011;23841;48.524;1.342;2023-04-21T14:09:50;48.95;;;21.63;;
38034;SDS011;23841;48.524;1.342;2023-04-21T14:12:15;47.22;;;21.23;;
38034;SDS011;23841;48.524;1.342;2023-04-21T14:14:41;40.17;;;18.83;;
38034;SDS011;23841;48.524;1.342;2023-04-21T14:17:07;42.28;;;19.55;;
38034;SDS011;23841;48.524;1.342;2023-04-21T14:19:33;41.85;;;17.80;;
38034;SDS011;23841;48.524;1.342;2023-04-21T14:21:58;37.67;;;17.58;;
38034;SDS011;23841;48.524;1.342;2023-04-21T14:24:24;35.17;;;16.73;;
38034;SDS011;23841;48.524;1.342;2023-04-21T14:26:52;35.63;;;16.08;;
38034;SDS011;23841;48.524;1.342;2023-04-21T14:29:18;29.98;;;14.05;;
38034;SDS011;23841;48.524;1.342;2023-04-21T14:31:44;30.05;;;13.75;;
38034;SDS011;23841;48.524;1.342;2023-04-21T14:34:09;23.40;;;10.90;;
38034;SDS011;23841;48.524;1.342;2023-04-21T14:36:35;19.83;;;10.05;;
38034;SDS011;23841;48.524;1.342;2023-04-21T14:39:01;19.30;;;8.10;;
38034;SDS011;23841;48.524;1.342;2023-04-21T14:41:26;17.15;;;8.05;;
38034;SDS011;23841;48.524;1.342;2023-04-21T14:43:52;15.38;;;7.78;;
38034;SDS011;23841;48.524;1.342;2023-04-21T14:46:20;15.52;;;7.82;;
38034;SDS011;23841;48.524;1.342;2023-04-21T14:48:45;15.57;;;7.72;;
38034;SDS011;23841;48.524;1.342;2023-04-21T14:51:11;14.93;;;7.95;;
38034;SDS011;23841;48.524;1.342;2023-04-21T14:53:36;14.65;;;7.63;;